Terminal Aerodrome Forecast
Issued by NWS Pendleton, OR

Home | Current Version | Previous Version | Text Only | Print | Product List | Glossary On
Versions: 1 2 3 4 5 6 7 8 9 10 11 12 13
000
FTUS46 KPDT 181100
TAFPDT
TAF
KPDT 181120Z 1812/1912 22008KT P6SM FEW150 SCT250
     FM181600 25006KT P6SM SKC
     FM182100 32007KT P6SM SKC
     FM190400 15005KT P6SM SKC=

USA.gov is the U.S. government's official web portal to all federal, state and local government web resources and services.